Time;durP1;ratioP1;P1;durP2;ratioP2;P2;SDS_P1;SDS_P2;PMS_P1;PMS_P2;Temp;Humidity;BMP_temperature;BMP_pressure;BME280_temperature;BME280_humidity;BME280_pressure;Samples;Min_cycle;Max_cycle;Signal;HPM_P1;HPM_P2
2021/01/22 00:01:40;;;;;;;3.30;2.00;;;;;;;;;;5078753;28;20043;-55
2021/01/22 00:04:07;;;;;;;4.53;2.23;;;;;;;;;;5078724;28;20099;-55
2021/01/22 00:06:34;;;;;;;2.80;1.87;;;;;;;;;;5079089;28;20499;-55
2021/01/22 00:09:00;;;;;;;5.83;1.83;;;;;;;;;;5078720;28;20059;-55
2021/01/22 00:11:27;;;;;;;2.80;1.70;;;;;;;;;;5078744;28;20456;-55
2021/01/22 00:13:54;;;;;;;2.00;1.47;;;;;;;;;;5078625;28;20043;-55
2021/01/22 00:16:21;;;;;;;3.10;1.97;;;;;;;;;;5075900;28;20107;-55
2021/01/22 00:18:48;;;;;;;4.00;1.97;;;;;;;;;;5075523;28;20466;-55
2021/01/22 00:21:14;;;;;;;3.77;1.80;;;;;;;;;;5075352;28;20029;-55
2021/01/22 00:23:41;;;;;;;5.17;2.10;;;;;;;;;;5075374;28;20106;-55
2021/01/22 00:26:08;;;;;;;4.37;2.10;;;;;;;;;;5075429;28;20028;-55
2021/01/22 00:28:35;;;;;;;7.07;2.00;;;;;;;;;;5075494;28;20025;-55
2021/01/22 00:31:02;;;;;;;5.03;1.80;;;;;;;;;;5075414;28;20025;-55
2021/01/22 00:33:29;;;;;;;8.10;1.97;;;;;;;;;;5075171;28;20111;-55
2021/01/22 00:35:56;;;;;;;6.27;1.80;;;;;;;;;;5075311;28;20043;-55
2021/01/22 00:38:23;;;;;;;8.00;2.20;;;;;;;;;;5075144;28;20036;-55
2021/01/22 00:40:50;;;;;;;5.37;1.77;;;;;;;;;;5075226;28;20085;-55
2021/01/22 00:43:16;;;;;;;4.00;1.90;;;;;;;;;;5074900;28;20046;-55
2021/01/22 00:45:43;;;;;;;7.17;3.17;;;;;;;;;;5074985;28;20120;-55
2021/01/22 00:48:10;;;;;;;12.03;6.63;;;;;;;;;;5074909;28;20471;-54
2021/01/22 00:50:37;;;;;;;8.00;3.17;;;;;;;;;;5075117;28;20031;-55
2021/01/22 00:53:04;;;;;;;7.40;2.77;;;;;;;;;;5074815;28;20078;-55
2021/01/22 00:55:31;;;;;;;4.47;2.17;;;;;;;;;;5074787;28;20028;-55
2021/01/22 00:57:58;;;;;;;5.13;2.23;;;;;;;;;;5074654;28;20055;-55
2021/01/22 01:00:25;;;;;;;4.90;2.87;;;;;;;;;;5074738;28;20031;-55
2021/01/22 01:02:51;;;;;;;4.73;2.40;;;;;;;;;;5074537;28;20040;-55
2021/01/22 01:05:18;;;;;;;5.13;2.13;;;;;;;;;;5075012;28;20020;-55
2021/01/22 01:07:45;;;;;;;3.93;2.20;;;;;;;;;;5074572;28;20037;-55
2021/01/22 01:10:12;;;;;;;4.93;2.67;;;;;;;;;;5074514;28;20368;-55
2021/01/22 01:12:39;;;;;;;10.17;2.60;;;;;;;;;;5074529;28;20039;-55
2021/01/22 01:15:06;;;;;;;5.23;2.87;;;;;;;;;;5074359;28;20031;-55
2021/01/22 01:17:33;;;;;;;4.20;2.20;;;;;;;;;;5074627;28;20128;-55
2021/01/22 01:20:00;;;;;;;4.87;2.47;;;;;;;;;;5074366;28;20376;-55
2021/01/22 01:22:27;;;;;;;6.40;2.50;;;;;;;;;;5074175;28;20044;-55
2021/01/22 01:24:53;;;;;;;5.47;2.30;;;;;;;;;;5074502;28;20103;-55
2021/01/22 01:27:20;;;;;;;4.37;2.67;;;;;;;;;;5073040;28;20040;-54
2021/01/22 01:29:47;;;;;;;7.17;2.80;;;;;;;;;;5074146;28;20036;-55
2021/01/22 01:32:14;;;;;;;5.43;2.30;;;;;;;;;;5074164;28;20035;-54
2021/01/22 01:34:40;;;;;;;5.57;2.30;;;;;;;;;;5074033;28;20318;-55
2021/01/22 01:37:07;;;;;;;6.93;3.20;;;;;;;;;;5073973;28;20056;-55
2021/01/22 01:39:34;;;;;;;5.77;2.00;;;;;;;;;;5073950;28;20094;-55
2021/01/22 01:42:01;;;;;;;4.40;2.27;;;;;;;;;;5073908;28;20071;-55
2021/01/22 01:44:27;;;;;;;8.50;2.30;;;;;;;;;;5073793;28;20028;-55
2021/01/22 01:46:54;;;;;;;6.37;2.43;;;;;;;;;;5073881;28;20052;-55
2021/01/22 01:49:21;;;;;;;5.13;2.30;;;;;;;;;;5073776;28;20036;-55
2021/01/22 01:51:48;;;;;;;7.47;3.73;;;;;;;;;;5073743;28;20024;-55
2021/01/22 01:54:15;;;;;;;6.40;2.70;;;;;;;;;;5073571;28;20044;-55
2021/01/22 01:56:42;;;;;;;4.87;2.90;;;;;;;;;;5073686;28;20024;-55
2021/01/22 01:59:08;;;;;;;6.20;3.03;;;;;;;;;;5073589;28;20379;-55
2021/01/22 02:01:37;;;;;;;8.57;3.50;;;;;;;;;;5073391;28;20415;-54
2021/01/22 02:04:03;;;;;;;5.73;2.83;;;;;;;;;;5073357;28;20029;-55
2021/01/22 02:06:31;;;;;;;4.87;2.83;;;;;;;;;;5073898;28;20063;-55
2021/01/22 02:08:58;;;;;;;4.53;2.83;;;;;;;;;;5073327;28;20031;-55
2021/01/22 02:11:26;;;;;;;4.77;2.37;;;;;;;;;;5073348;28;20387;-55
2021/01/22 02:13:54;;;;;;;8.97;2.50;;;;;;;;;;5073329;28;20407;-56
2021/01/22 02:16:21;;;;;;;4.80;2.87;;;;;;;;;;5073247;28;20120;-55
2021/01/22 02:18:50;;;;;;;5.17;2.77;;;;;;;;;;5073367;28;20063;-55
2021/01/22 02:21:36;;;;;;;3.63;2.47;;;;;;;;;;5073214;28;20406;-55
2021/01/22 02:24:08;;;;;;;9.30;2.93;;;;;;;;;;5073148;28;20028;-55
2021/01/22 02:26:41;;;;;;;7.20;2.80;;;;;;;;;;5073094;28;20360;-55
2021/01/22 02:29:08;;;;;;;6.40;2.60;;;;;;;;;;5073167;28;20024;-56
2021/01/22 02:31:36;;;;;;;5.40;2.40;;;;;;;;;;5073311;28;20024;-55
2021/01/22 02:34:04;;;;;;;5.63;2.90;;;;;;;;;;5073222;28;20036;-54
2021/01/22 02:36:35;;;;;;;4.37;2.23;;;;;;;;;;5073029;28;20055;-55
2021/01/22 02:39:05;;;;;;;5.43;2.03;;;;;;;;;;5072653;28;20092;-54
2021/01/22 02:41:34;;;;;;;3.67;2.10;;;;;;;;;;5072889;28;20052;-54
2021/01/22 02:44:05;;;;;;;6.03;2.67;;;;;;;;;;5072808;28;20483;-54
2021/01/22 02:46:32;;;;;;;5.17;2.13;;;;;;;;;;5072961;28;20021;-55
2021/01/22 02:48:59;;;;;;;5.50;3.07;;;;;;;;;;5072903;28;20091;-54
2021/01/22 02:51:26;;;;;;;5.33;2.83;;;;;;;;;;5072765;28;20040;-55
2021/01/22 02:53:53;;;;;;;8.30;2.07;;;;;;;;;;5073080;28;20028;-56
2021/01/22 02:56:38;;;;;;;4.63;1.93;;;;;;;;;;5072701;28;20029;-56
2021/01/22 02:59:11;;;;;;;5.05;2.55;;;;;;;;;;5072716;28;20094;-54
2021/01/22 03:01:46;;;;;;;3.33;1.83;;;;;;;;;;5072658;28;20103;-54
2021/01/22 03:04:13;;;;;;;6.70;2.77;;;;;;;;;;5072886;28;20480;-54
2021/01/22 03:06:44;;;;;;;5.77;3.00;;;;;;;;;;5073090;28;20056;-55
2021/01/22 03:09:13;;;;;;;6.70;2.77;;;;;;;;;;5072906;28;20029;-55
2021/01/22 03:11:42;;;;;;;6.60;2.20;;;;;;;;;;5072628;28;20024;-54
2021/01/22 03:14:09;;;;;;;5.70;2.73;;;;;;;;;;5072883;28;20078;-54
2021/01/22 03:16:36;;;;;;;5.70;2.00;;;;;;;;;;5072152;28;20070;-54
2021/01/22 03:19:06;;;;;;;5.13;2.50;;;;;;;;;;5072116;28;20483;-53
2021/01/22 03:21:33;;;;;;;4.13;2.40;;;;;;;;;;5072398;28;20034;-54
2021/01/22 03:24:00;;;;;;;7.30;2.63;;;;;;;;;;5072457;28;20372;-53
2021/01/22 03:26:34;;;;;;;8.00;3.40;;;;;;;;;;5072341;28;20383;-53
2021/01/22 03:29:08;;;;;;;5.55;3.13;;;;;;;;;;5072620;28;20028;-53
2021/01/22 03:31:38;;;;;;;7.57;2.38;;;;;;;;;;5072393;28;20035;-53
2021/01/22 03:34:04;;;;;;;5.77;2.70;;;;;;;;;;5072352;28;20035;-53
2021/01/22 03:36:31;;;;;;;6.20;2.80;;;;;;;;;;5072279;28;20017;-54
2021/01/22 03:38:58;;;;;;;6.47;3.43;;;;;;;;;;5072368;28;20021;-53
2021/01/22 03:41:25;;;;;;;5.53;3.27;;;;;;;;;;5072141;28;20016;-53
2021/01/22 03:43:51;;;;;;;6.70;2.80;;;;;;;;;;5072247;28;20032;-54
2021/01/22 03:46:18;;;;;;;8.50;2.60;;;;;;;;;;5072384;28;20043;-53
2021/01/22 03:48:46;;;;;;;3.90;2.00;;;;;;;;;;5072115;28;20479;-54
2021/01/22 03:51:12;;;;;;;6.73;3.70;;;;;;;;;;5073577;28;20028;-54
2021/01/22 03:53:39;;;;;;;5.93;2.57;;;;;;;;;;5075863;28;20135;-53
2021/01/22 03:56:06;;;;;;;4.67;2.67;;;;;;;;;;5076068;28;20020;-53
2021/01/22 03:58:33;;;;;;;5.57;2.53;;;;;;;;;;5075810;28;20044;-53
2021/01/22 04:00:59;;;;;;;3.13;1.80;;;;;;;;;;5075758;28;20032;-53
2021/01/22 04:03:26;;;;;;;5.73;2.70;;;;;;;;;;5075646;28;20028;-53
2021/01/22 04:05:53;;;;;;;4.90;2.90;;;;;;;;;;5075852;28;20106;-53
2021/01/22 04:08:20;;;;;;;3.53;2.00;;;;;;;;;;5076205;28;20048;-53
2021/01/22 04:10:46;;;;;;;4.50;2.23;;;;;;;;;;5075649;28;20024;-53
2021/01/22 04:13:13;;;;;;;4.77;2.10;;;;;;;;;;5075491;28;20047;-53
2021/01/22 04:15:40;;;;;;;4.77;2.83;;;;;;;;;;5075690;28;20040;-53
2021/01/22 04:18:07;;;;;;;7.20;2.60;;;;;;;;;;5075584;28;20024;-53
2021/01/22 04:20:33;;;;;;;5.53;2.60;;;;;;;;;;5075443;28;20024;-53
2021/01/22 04:23:00;;;;;;;3.67;2.13;;;;;;;;;;5075430;28;20036;-53
2021/01/22 04:25:27;;;;;;;5.20;2.23;;;;;;;;;;5075397;28;20199;-53
2021/01/22 04:27:54;;;;;;;5.17;2.50;;;;;;;;;;5075301;28;20021;-53
2021/01/22 04:30:21;;;;;;;5.70;2.40;;;;;;;;;;5075389;28;20024;-53
2021/01/22 04:32:48;;;;;;;4.57;2.63;;;;;;;;;;5075213;28;20028;-53
2021/01/22 04:35:15;;;;;;;5.13;2.70;;;;;;;;;;5075370;28;20016;-53
2021/01/22 04:37:42;;;;;;;5.03;2.23;;;;;;;;;;5075227;28;20021;-53
2021/01/22 04:40:09;;;;;;;4.17;2.30;;;;;;;;;;5075246;28;20029;-53
2021/01/22 04:42:39;;;;;;;3.97;2.10;;;;;;;;;;5075241;28;20033;-53
2021/01/22 04:45:10;;;;;;;5.93;2.47;;;;;;;;;;5075019;28;20095;-53
2021/01/22 04:47:38;;;;;;;6.57;2.23;;;;;;;;;;5074885;28;20369;-53
2021/01/22 04:50:05;;;;;;;6.17;2.00;;;;;;;;;;5074770;28;20475;-53
2021/01/22 04:52:32;;;;;;;4.40;2.50;;;;;;;;;;5074825;28;20024;-53
2021/01/22 04:55:01;;;;;;;3.97;2.10;;;;;;;;;;5074899;28;20364;-53
2021/01/22 04:57:30;;;;;;;5.77;2.30;;;;;;;;;;5074895;28;20048;-53
2021/01/22 04:59:58;;;;;;;9.50;2.10;;;;;;;;;;5074734;28;20099;-53
2021/01/22 05:02:24;;;;;;;4.20;2.40;;;;;;;;;;5074373;28;20124;-53
2021/01/22 05:04:51;;;;;;;3.57;1.90;;;;;;;;;;5074546;28;20035;-53
2021/01/22 05:07:21;;;;;;;3.40;2.13;;;;;;;;;;5074757;28;20079;-53
2021/01/22 05:09:49;;;;;;;3.97;2.40;;;;;;;;;;5074535;28;20024;-53
2021/01/22 05:12:16;;;;;;;5.83;2.70;;;;;;;;;;5074505;28;20029;-53
2021/01/22 05:14:43;;;;;;;4.27;2.27;;;;;;;;;;5074428;28;20107;-53
2021/01/22 05:17:10;;;;;;;4.53;1.80;;;;;;;;;;5074510;28;20117;-53
2021/01/22 05:19:38;;;;;;;3.77;1.70;;;;;;;;;;5074356;28;20025;-53
2021/01/22 05:22:05;;;;;;;5.50;1.97;;;;;;;;;;5074270;28;20387;-53
2021/01/22 05:24:36;;;;;;;5.73;1.97;;;;;;;;;;5074226;28;20033;-53
2021/01/22 05:27:04;;;;;;;3.80;2.00;;;;;;;;;;5074495;28;20413;-53
2021/01/22 05:29:32;;;;;;;4.57;2.00;;;;;;;;;;5074175;28;20503;-53
2021/01/22 05:31:58;;;;;;;3.37;1.97;;;;;;;;;;5074157;28;20028;-53
2021/01/22 05:34:44;;;;;;;4.13;1.87;;;;;;;;;;5074013;28;20448;-53
2021/01/22 05:37:18;;;;;;;3.20;2.10;;;;;;;;;;5074103;28;20063;-53
2021/01/22 05:39:45;;;;;;;3.20;1.77;;;;;;;;;;5073956;28;20032;-52
2021/01/22 05:42:13;;;;;;;3.70;1.90;;;;;;;;;;5073838;28;20128;-53
2021/01/22 05:44:55;;;;;;;3.20;1.80;;;;;;;;;;5073952;28;20016;-53
2021/01/22 05:47:22;;;;;;;4.83;2.00;;;;;;;;;;5073766;28;20025;-53
2021/01/22 05:49:54;;;;;;;3.57;2.40;;;;;;;;;;5073633;28;20021;-53
2021/01/22 05:52:22;;;;;;;4.27;2.00;;;;;;;;;;5073745;28;20029;-53
2021/01/22 05:54:49;;;;;;;3.90;2.20;;;;;;;;;;5073705;28;20027;-53
2021/01/22 05:57:16;;;;;;;4.40;1.97;;;;;;;;;;5073546;28;20429;-53
2021/01/22 05:59:43;;;;;;;3.20;1.70;;;;;;;;;;5073519;28;20020;-53
2021/01/22 06:02:29;;;;;;;3.50;2.10;;;;;;;;;;5073451;28;20082;-53
2021/01/22 06:05:14;;;;;;;3.57;1.97;;;;;;;;;;5073378;28;20027;-53
2021/01/22 06:07:42;;;;;;;3.63;1.80;;;;;;;;;;5073611;28;20052;-53
2021/01/22 06:10:16;;;;;;;5.20;1.93;;;;;;;;;;5073402;28;20475;-53
2021/01/22 06:12:50;;;;;;;4.47;1.83;;;;;;;;;;5073307;28;20039;-53
2021/01/22 06:15:18;;;;;;;5.07;2.07;;;;;;;;;;5073021;28;20403;-53
2021/01/22 06:17:48;;;;;;;5.53;1.93;;;;;;;;;;5073306;28;20035;-53
2021/01/22 06:20:16;;;;;;;4.83;2.27;;;;;;;;;;5073234;28;20034;-53
2021/01/22 06:22:47;;;;;;;4.53;2.27;;;;;;;;;;5073103;28;20498;-53
2021/01/22 06:25:15;;;;;;;4.13;2.30;;;;;;;;;;5073100;28;20051;-53
2021/01/22 06:27:42;;;;;;;6.57;2.23;;;;;;;;;;5073043;28;20127;-53
2021/01/22 06:30:10;;;;;;;2.97;1.70;;;;;;;;;;5073201;28;20093;-53
2021/01/22 06:32:40;;;;;;;3.27;1.67;;;;;;;;;;5055214;28;20502;-53
2021/01/22 06:35:07;;;;;;;3.20;2.00;;;;;;;;;;5073027;28;20044;-53
2021/01/22 06:37:35;;;;;;;3.67;1.90;;;;;;;;;;5073024;28;20027;-53
2021/01/22 06:40:04;;;;;;;3.60;2.00;;;;;;;;;;5072891;28;20122;-53
2021/01/22 06:42:33;;;;;;;3.40;1.80;;;;;;;;;;5072716;28;20132;-53
2021/01/22 06:45:00;;;;;;;6.63;2.13;;;;;;;;;;5072868;28;20419;-53
2021/01/22 06:47:27;;;;;;;5.73;2.00;;;;;;;;;;5072955;28;20025;-53
2021/01/22 06:49:53;;;;;;;4.17;2.27;;;;;;;;;;5072682;28;20056;-53
2021/01/22 06:52:20;;;;;;;3.70;2.00;;;;;;;;;;5072890;28;20035;-53
2021/01/22 06:54:59;;;;;;;3.90;2.00;;;;;;;;;;5072677;28;20635;-53
2021/01/22 06:57:26;;;;;;;5.67;2.27;;;;;;;;;;5072802;28;20261;-53
2021/01/22 06:59:53;;;;;;;6.53;2.40;;;;;;;;;;5072520;28;20048;-53
2021/01/22 07:02:35;;;;;;;5.00;1.83;;;;;;;;;;5072621;28;20414;-53
2021/01/22 07:05:02;;;;;;;3.90;2.00;;;;;;;;;;5072600;28;20056;-53
2021/01/22 07:07:46;;;;;;;3.70;2.00;;;;;;;;;;5072562;28;20130;-53
2021/01/22 07:10:13;;;;;;;5.30;1.77;;;;;;;;;;5072710;28;20371;-53
2021/01/22 07:12:47;;;;;;;5.40;1.87;;;;;;;;;;5072724;28;20024;-53
2021/01/22 07:15:26;;;;;;;7.33;2.20;;;;;;;;;;5072578;28;20432;-53
2021/01/22 07:17:56;;;;;;;4.13;2.00;;;;;;;;;;5072569;28;20288;-53
2021/01/22 07:20:23;;;;;;;4.33;2.43;;;;;;;;;;5072491;28;20607;-53
2021/01/22 07:22:54;;;;;;;2.50;1.67;;;;;;;;;;5072411;28;20288;-53
2021/01/22 07:25:30;;;;;;;3.60;2.30;;;;;;;;;;5074210;28;20035;-53
2021/01/22 07:27:57;;;;;;;4.97;2.27;;;;;;;;;;5076558;28;20264;-53
2021/01/22 07:30:24;;;;;;;3.17;2.03;;;;;;;;;;5076408;28;20389;-53
2021/01/22 07:32:52;;;;;;;4.67;2.17;;;;;;;;;;5076394;28;20261;-53
2021/01/22 07:35:25;;;;;;;3.53;2.13;;;;;;;;;;5076374;28;20249;-53
2021/01/22 07:37:53;;;;;;;6.13;2.30;;;;;;;;;;5076249;28;20781;-53
2021/01/22 07:40:20;;;;;;;4.33;2.07;;;;;;;;;;5076213;28;20257;-53
2021/01/22 07:42:53;;;;;;;5.90;2.50;;;;;;;;;;5076290;28;20284;-53
2021/01/22 07:45:20;;;;;;;3.60;1.97;;;;;;;;;;5076148;28;20262;-53
2021/01/22 07:47:48;;;;;;;5.57;2.67;;;;;;;;;;5076095;28;20253;-53
2021/01/22 07:50:15;;;;;;;4.90;2.60;;;;;;;;;;5076136;28;20249;-53
2021/01/22 07:52:46;;;;;;;4.13;2.40;;;;;;;;;;5076044;28;20466;-53
2021/01/22 07:55:20;;;;;;;4.67;2.63;;;;;;;;;;5075995;28;20245;-53
2021/01/22 07:57:47;;;;;;;3.63;2.20;;;;;;;;;;5076009;28;20272;-53
2021/01/22 08:00:15;;;;;;;4.20;1.97;;;;;;;;;;5075884;28;20249;-53
2021/01/22 08:03:08;;;;;;;4.60;2.67;;;;;;;;;;5075669;28;20317;-53
2021/01/22 08:05:36;;;;;;;7.67;2.47;;;;;;;;;;5072033;28;20265;-53
2021/01/22 08:08:16;;;;;;;3.37;2.20;;;;;;;;;;5075822;28;20282;-53
2021/01/22 08:10:43;;;;;;;6.27;2.03;;;;;;;;;;5075710;28;20608;-53
2021/01/22 08:13:10;;;;;;;7.83;3.10;;;;;;;;;;5075848;28;20318;-53
2021/01/22 08:15:37;;;;;;;4.40;2.70;;;;;;;;;;5075563;28;20303;-53
2021/01/22 08:18:07;;;;;;;4.43;2.53;;;;;;;;;;5075572;28;20807;-53
2021/01/22 08:20:34;;;;;;;5.43;2.50;;;;;;;;;;5075437;28;20242;-53
2021/01/22 08:23:01;;;;;;;6.63;2.13;;;;;;;;;;5075594;28;20317;-53
2021/01/22 08:25:35;;;;;;;6.33;2.93;;;;;;;;;;5075437;28;20663;-53
2021/01/22 08:28:03;;;;;;;4.07;2.13;;;;;;;;;;5075241;28;20277;-53
2021/01/22 08:30:30;;;;;;;6.17;2.53;;;;;;;;;;5075279;28;20257;-53
2021/01/22 08:32:57;;;;;;;6.80;2.63;;;;;;;;;;5075254;28;20245;-53
2021/01/22 08:35:25;;;;;;;7.30;2.30;;;;;;;;;;5075175;28;20608;-53
2021/01/22 08:37:56;;;;;;;4.17;2.13;;;;;;;;;;5074630;28;20253;-53
2021/01/22 08:40:23;;;;;;;5.27;2.23;;;;;;;;;;5075088;28;20292;-53
2021/01/22 08:42:59;;;;;;;6.97;2.07;;;;;;;;;;5074936;28;20360;-53
2021/01/22 08:45:26;;;;;;;5.37;2.50;;;;;;;;;;5075040;28;20253;-53
2021/01/22 08:47:53;;;;;;;5.27;2.77;;;;;;;;;;5074931;28;20262;-52
2021/01/22 08:50:20;;;;;;;6.17;2.47;;;;;;;;;;5074907;28;20299;-53
2021/01/22 08:52:47;;;;;;;8.60;2.33;;;;;;;;;;5074987;28;20573;-53
2021/01/22 08:55:21;;;;;;;3.53;2.20;;;;;;;;;;5074975;28;20724;-53
2021/01/22 08:58:07;;;;;;;3.13;2.10;;;;;;;;;;5074766;28;20762;-53
2021/01/22 09:00:34;;;;;;;3.53;2.10;;;;;;;;;;5074786;28;20261;-53
2021/01/22 09:03:01;;;;;;;6.93;2.70;;;;;;;;;;5074552;28;20788;-53
2021/01/22 09:05:27;;;;;;;6.00;2.70;;;;;;;;;;5074676;28;20253;-53
2021/01/22 09:08:15;;;;;;;3.90;2.30;;;;;;;;;;5074895;28;20321;-53
2021/01/22 09:10:43;;;;;;;4.30;2.37;;;;;;;;;;5074549;28;20589;-53
2021/01/22 09:13:13;;;;;;;3.53;2.27;;;;;;;;;;5074731;28;20264;-52
2021/01/22 09:15:40;;;;;;;3.37;2.10;;;;;;;;;;5074450;28;20260;-52
2021/01/22 09:18:17;;;;;;;7.83;2.20;;;;;;;;;;5074546;28;20257;-53
2021/01/22 09:20:45;;;;;;;3.83;2.20;;;;;;;;;;5074500;28;20246;-53
2021/01/22 09:23:12;;;;;;;5.27;2.10;;;;;;;;;;5074190;28;20285;-53
2021/01/22 09:25:39;;;;;;;5.37;1.80;;;;;;;;;;5074273;28;20261;-53
2021/01/22 09:28:06;;;;;;;4.00;2.10;;;;;;;;;;5074148;28;20338;-53
2021/01/22 09:30:34;;;;;;;4.07;2.27;;;;;;;;;;5074119;28;20268;-53
2021/01/22 09:33:01;;;;;;;4.33;2.13;;;;;;;;;;5074112;28;20715;-53
2021/01/22 09:35:29;;;;;;;3.93;2.03;;;;;;;;;;5074108;28;20270;-53
2021/01/22 09:37:56;;;;;;;4.00;2.10;;;;;;;;;;5074087;28;20253;-53
2021/01/22 09:40:23;;;;;;;3.57;2.00;;;;;;;;;;5074063;28;20258;-53
2021/01/22 09:42:50;;;;;;;6.37;2.63;;;;;;;;;;5073786;28;20315;-53
2021/01/22 09:45:18;;;;;;;4.90;2.50;;;;;;;;;;5073888;28;20253;-53
2021/01/22 09:47:45;;;;;;;5.43;2.13;;;;;;;;;;5073530;28;20254;-53
2021/01/22 09:50:13;;;;;;;4.90;2.50;;;;;;;;;;5073040;28;20315;-53
2021/01/22 09:52:40;;;;;;;3.70;2.00;;;;;;;;;;5073649;28;20719;-53
2021/01/22 09:55:09;;;;;;;3.80;2.20;;;;;;;;;;5073660;28;20264;-53
2021/01/22 09:57:35;;;;;;;4.40;2.37;;;;;;;;;;5073759;28;20257;-52
2021/01/22 10:00:04;;;;;;;2.97;1.80;;;;;;;;;;5073611;28;20264;-53
2021/01/22 10:02:30;;;;;;;4.33;1.90;;;;;;;;;;5073565;28;20284;-53
2021/01/22 10:04:57;;;;;;;3.73;2.10;;;;;;;;;;5073475;28;20253;-53
2021/01/22 10:07:24;;;;;;;4.17;2.30;;;;;;;;;;5073494;28;20289;-52
2021/01/22 10:09:51;;;;;;;5.40;2.77;;;;;;;;;;5073543;28;20268;-53
2021/01/22 10:12:20;;;;;;;4.83;2.50;;;;;;;;;;5073455;28;20336;-53
2021/01/22 10:14:46;;;;;;;5.40;2.40;;;;;;;;;;5073421;28;20257;-53
2021/01/22 10:17:13;;;;;;;4.13;2.50;;;;;;;;;;5073215;28;20723;-53
2021/01/22 10:19:40;;;;;;;5.30;2.70;;;;;;;;;;5073289;28;20543;-53
2021/01/22 10:22:07;;;;;;;3.90;2.27;;;;;;;;;;5073147;28;20269;-53
2021/01/22 10:24:34;;;;;;;6.53;2.40;;;;;;;;;;5073158;28;20261;-52
2021/01/22 10:27:01;;;;;;;2.97;1.80;;;;;;;;;;5073148;28;20612;-53
2021/01/22 10:29:27;;;;;;;6.97;2.57;;;;;;;;;;5073164;28;20249;-53
2021/01/22 10:31:54;;;;;;;3.27;2.00;;;;;;;;;;5073132;28;20245;-53
2021/01/22 10:34:21;;;;;;;3.40;2.13;;;;;;;;;;5072871;28;20604;-52
2021/01/22 10:36:48;;;;;;;9.10;2.10;;;;;;;;;;5073107;28;20263;-53
2021/01/22 10:39:14;;;;;;;5.13;1.93;;;;;;;;;;5073053;28;20249;-53
2021/01/22 10:41:41;;;;;;;4.50;2.40;;;;;;;;;;5072917;28;20276;-53
2021/01/22 10:44:08;;;;;;;4.63;2.90;;;;;;;;;;5072843;28;20302;-52
2021/01/22 10:46:35;;;;;;;3.90;2.17;;;;;;;;;;5072729;28;20594;-52
2021/01/22 10:49:02;;;;;;;3.80;2.10;;;;;;;;;;5072960;28;20266;-53
2021/01/22 10:51:28;;;;;;;4.43;2.20;;;;;;;;;;5072925;28;20280;-53
2021/01/22 10:53:55;;;;;;;5.13;2.20;;;;;;;;;;5072861;28;20249;-53
2021/01/22 10:56:22;;;;;;;4.37;2.20;;;;;;;;;;5072753;28;20612;-53
2021/01/22 10:58:49;;;;;;;4.60;1.87;;;;;;;;;;5072845;28;20256;-52
2021/01/22 11:01:16;;;;;;;4.03;2.20;;;;;;;;;;5072549;28;20287;-52
2021/01/22 11:03:43;;;;;;;4.60;1.80;;;;;;;;;;5072684;28;20288;-53
2021/01/22 11:06:09;;;;;;;5.63;2.57;;;;;;;;;;5072666;28;20624;-52
2021/01/22 11:08:36;;;;;;;4.73;2.40;;;;;;;;;;5072852;28;20277;-52
2021/01/22 11:11:03;;;;;;;5.37;2.23;;;;;;;;;;5072552;28;20268;-53
2021/01/22 11:13:30;;;;;;;3.83;2.03;;;;;;;;;;5072691;28;20295;-52
2021/01/22 11:15:57;;;;;;;4.53;1.87;;;;;;;;;;5072562;28;20253;-52
2021/01/22 11:18:23;;;;;;;4.90;2.53;;;;;;;;;;5072570;28;20279;-52
2021/01/22 11:20:50;;;;;;;5.10;2.43;;;;;;;;;;5072522;28;20338;-52
2021/01/22 11:23:17;;;;;;;4.80;2.40;;;;;;;;;;5072502;28;20859;-53
2021/01/22 11:25:44;;;;;;;4.87;2.07;;;;;;;;;;5072721;28;20253;-52
2021/01/22 11:28:11;;;;;;;3.60;1.87;;;;;;;;;;5072393;28;20283;-52
2021/01/22 11:30:38;;;;;;;4.10;2.00;;;;;;;;;;5072467;28;20612;-53
2021/01/22 11:33:04;;;;;;;4.23;2.30;;;;;;;;;;5072359;28;20261;-52
2021/01/22 11:35:33;;;;;;;4.67;1.90;;;;;;;;;;5072372;28;20605;-52
2021/01/22 11:38:00;;;;;;;5.17;2.07;;;;;;;;;;5072466;28;20258;-52
2021/01/22 11:40:27;;;;;;;3.50;1.93;;;;;;;;;;5072231;28;20242;-52
2021/01/22 11:42:54;;;;;;;5.23;2.20;;;;;;;;;;5072146;28;20313;-53
2021/01/22 11:45:20;;;;;;;4.03;2.20;;;;;;;;;;5072236;28;20253;-52
2021/01/22 11:47:47;;;;;;;4.03;2.47;;;;;;;;;;5072212;28;20265;-52
2021/01/22 11:50:14;;;;;;;4.37;2.20;;;;;;;;;;5072129;28;20299;-52
2021/01/22 11:52:41;;;;;;;5.13;2.60;;;;;;;;;;5072148;28;20256;-53
2021/01/22 11:55:08;;;;;;;6.70;2.13;;;;;;;;;;5072381;28;20867;-52
2021/01/22 11:57:34;;;;;;;3.30;2.00;;;;;;;;;;5072236;28;20250;-52
2021/01/22 12:00:01;;;;;;;5.90;2.20;;;;;;;;;;5072087;28;20801;-53
2021/01/22 12:02:28;;;;;;;3.70;2.53;;;;;;;;;;5072147;28;20790;-52
2021/01/22 12:04:55;;;;;;;3.07;1.70;;;;;;;;;;5072038;28;20596;-52
2021/01/22 12:07:22;;;;;;;6.30;2.80;;;;;;;;;;5072311;28;20683;-52
2021/01/22 12:09:48;;;;;;;4.23;2.50;;;;;;;;;;5072169;28;20250;-52
2021/01/22 12:12:15;;;;;;;5.10;2.17;;;;;;;;;;5073283;28;20245;-52
2021/01/22 12:14:42;;;;;;;3.67;2.23;;;;;;;;;;5075834;28;20496;-52
2021/01/22 12:17:08;;;;;;;4.97;2.03;;;;;;;;;;5075538;28;20258;-52
2021/01/22 12:19:36;;;;;;;5.00;2.20;;;;;;;;;;5075652;28;20280;-52
2021/01/22 12:22:02;;;;;;;4.40;2.20;;;;;;;;;;5075332;28;20272;-52
2021/01/22 12:24:29;;;;;;;4.40;2.47;;;;;;;;;;5075468;28;20340;-52
2021/01/22 12:26:56;;;;;;;3.37;2.20;;;;;;;;;;5075427;28;20748;-52
2021/01/22 12:29:23;;;;;;;3.63;2.10;;;;;;;;;;5075463;28;20724;-52
2021/01/22 12:31:50;;;;;;;4.53;2.43;;;;;;;;;;5075495;28;20260;-52
2021/01/22 12:34:17;;;;;;;4.83;2.13;;;;;;;;;;5057363;28;20787;-52
2021/01/22 12:36:43;;;;;;;4.63;2.33;;;;;;;;;;5075406;28;20253;-52
2021/01/22 12:39:10;;;;;;;3.53;2.03;;;;;;;;;;5075192;28;20258;-52
2021/01/22 12:41:37;;;;;;;5.03;2.40;;;;;;;;;;5075260;28;20272;-53
2021/01/22 12:44:04;;;;;;;3.57;2.13;;;;;;;;;;5074970;28;20285;-52
2021/01/22 12:46:31;;;;;;;5.00;2.37;;;;;;;;;;5075204;28;20263;-52
2021/01/22 12:48:57;;;;;;;4.47;2.00;;;;;;;;;;5075099;28;20763;-52
2021/01/22 12:51:25;;;;;;;4.27;2.30;;;;;;;;;;5074952;28;20254;-52
2021/01/22 12:53:52;;;;;;;6.07;2.40;;;;;;;;;;5074871;28;20739;-52
2021/01/22 12:56:19;;;;;;;4.23;2.33;;;;;;;;;;5074854;28;20249;-52
2021/01/22 12:58:46;;;;;;;4.53;2.10;;;;;;;;;;5074838;28;20607;-52
2021/01/22 13:01:13;;;;;;;3.67;2.20;;;;;;;;;;5074852;28;20253;-52
2021/01/22 13:03:39;;;;;;;5.60;2.40;;;;;;;;;;5074648;28;20379;-52
2021/01/22 13:06:06;;;;;;;4.83;3.00;;;;;;;;;;5074953;28;20246;-52
2021/01/22 13:08:33;;;;;;;6.30;2.73;;;;;;;;;;5074964;28;20292;-52
2021/01/22 13:11:00;;;;;;;6.93;2.80;;;;;;;;;;5074650;28;20245;-52
2021/01/22 13:13:27;;;;;;;7.53;3.27;;;;;;;;;;5074482;28;20284;-52
2021/01/22 13:15:54;;;;;;;7.27;2.93;;;;;;;;;;5074732;28;20249;-52
2021/01/22 13:18:21;;;;;;;3.00;1.93;;;;;;;;;;5074473;28;20306;-52
2021/01/22 13:20:48;;;;;;;4.37;2.40;;;;;;;;;;5056573;28;20795;-52
2021/01/22 13:23:14;;;;;;;7.87;2.90;;;;;;;;;;5074092;28;20297;-52
2021/01/22 13:25:41;;;;;;;5.43;2.77;;;;;;;;;;5074282;28;20249;-52
2021/01/22 13:28:08;;;;;;;4.80;2.60;;;;;;;;;;5074277;28;20336;-53
2021/01/22 13:30:35;;;;;;;6.13;2.93;;;;;;;;;;5074110;28;20253;-53
2021/01/22 13:33:01;;;;;;;3.77;2.10;;;;;;;;;;5074128;28;20340;-52
2021/01/22 13:35:28;;;;;;;5.70;2.40;;;;;;;;;;5074038;28;20253;-52
2021/01/22 13:37:55;;;;;;;8.53;2.67;;;;;;;;;;5074033;28;20254;-52
2021/01/22 13:40:22;;;;;;;4.43;2.40;;;;;;;;;;5074079;28;20245;-52
2021/01/22 13:42:49;;;;;;;5.77;2.70;;;;;;;;;;5073965;28;20791;-52
2021/01/22 13:45:16;;;;;;;5.80;2.40;;;;;;;;;;5073899;28;20324;-52
2021/01/22 13:47:44;;;;;;;6.67;2.97;;;;;;;;;;5073808;28;20348;-52
2021/01/22 13:50:11;;;;;;;9.40;3.93;;;;;;;;;;5073829;28;20253;-52
2021/01/22 13:52:38;;;;;;;5.27;3.20;;;;;;;;;;5074012;28;20246;-52
2021/01/22 13:55:06;;;;;;;8.30;4.07;;;;;;;;;;5073836;28;20263;-52
2021/01/22 13:57:33;;;;;;;10.53;4.57;;;;;;;;;;5073920;28;20273;-52
2021/01/22 13:59:59;;;;;;;11.17;7.60;;;;;;;;;;5073479;28;20451;-53
2021/01/22 14:02:26;;;;;;;13.93;8.50;;;;;;;;;;5073397;28;20292;-52
2021/01/22 14:04:53;;;;;;;12.90;7.47;;;;;;;;;;5073392;28;20253;-53
2021/01/22 14:07:20;;;;;;;13.60;7.37;;;;;;;;;;5073578;28;20297;-53
2021/01/22 14:09:46;;;;;;;11.17;6.33;;;;;;;;;;5073457;28;20307;-53
2021/01/22 14:12:13;;;;;;;12.23;7.03;;;;;;;;;;5073436;28;20283;-53
2021/01/22 14:14:40;;;;;;;10.57;5.83;;;;;;;;;;5073319;28;20721;-53
2021/01/22 14:17:07;;;;;;;9.20;6.40;;;;;;;;;;5073663;28;20272;-53
2021/01/22 14:19:33;;;;;;;10.03;6.30;;;;;;;;;;5073403;28;20262;-53
2021/01/22 14:22:00;;;;;;;9.10;5.07;;;;;;;;;;5073024;28;20376;-53
2021/01/22 14:24:27;;;;;;;10.07;5.37;;;;;;;;;;5073265;28;20249;-53
2021/01/22 14:26:54;;;;;;;10.20;5.50;;;;;;;;;;5073099;28;20260;-53
2021/01/22 14:29:20;;;;;;;10.93;4.90;;;;;;;;;;5073035;28;20264;-53
2021/01/22 14:31:47;;;;;;;8.67;4.87;;;;;;;;;;5073194;28;20322;-53
2021/01/22 14:34:14;;;;;;;10.80;5.33;;;;;;;;;;5072694;28;20311;-53
2021/01/22 14:36:41;;;;;;;7.27;3.70;;;;;;;;;;5072904;28;20387;-53
2021/01/22 14:39:08;;;;;;;6.60;3.40;;;;;;;;;;5073001;28;20086;-53
2021/01/22 14:41:34;;;;;;;10.07;3.80;;;;;;;;;;5072919;28;20542;-54
2021/01/22 14:44:02;;;;;;;9.70;3.87;;;;;;;;;;5072923;28;20048;-53
2021/01/22 14:46:29;;;;;;;10.00;3.90;;;;;;;;;;5072864;28;20029;-53
2021/01/22 14:48:55;;;;;;;7.03;4.30;;;;;;;;;;5072734;28;20549;-53